MMTG/TGZ METAR and TAF weather

Enter ICAO airport designator
Station Type Date Time Source
MMTG METAR 2020/07/11 03:54 UTC NOAA

MMTG 110354Z 00000KT 5SM SCT015 BKN080 OVC300 24/23 A3000 RMK 8/763 CBS N HZY


Station Type Date Time Source
MMTG Decoded METAR 2020/07/11 03:54 UTC NOAA

Tuxtla Gutierrez, Chis., Mexico (MMTG) 16-45N 093-07W
Jul 10, 2020 - 11:54 PM EDT / 2020.07.11 0354 UTC
Wind: Calm:0
Visibility: 5 mile(s):0
Sky conditions: overcast
Weather: Cumulonimbus clouds observed
Temperature: 75 F (24 C)
Dew Point: 73 F (23 C)
Relative Humidity: 94%
Pressure (altimeter): 30 in. Hg (1015 hPa)
ob: MMTG 110354Z 00000KT 5SM SCT015 BKN080 OVC300 24/23 A3000 RMK 8/763 CBS N HZY
cycle: 4

Station Type Date Time Source
MMTG TAF 2020/07/11 06:57 UTC NOAA

TAF MMTG 110455Z 1106/1206 00000KT 5SM HZ SCT015 BKN080 OVC300
TEMPO 1110/1114 BKN015
FM111600 34010KT P6SM SCT030 BKN300
BECMG 1119/1120 BKN030CB BKN080 BKN300
TEMPO 1121/1201 5SM TSRA

Example: see airport list